Time;durP1;ratioP1;P1;durP2;ratioP2;P2;SDS_P1;SDS_P2;PMS_P1;PMS_P2;Temp;Humidity;BMP_temperature;BMP_pressure;BME280_temperature;BME280_humidity;BME280_pressure;Samples;Min_cycle;Max_cycle;Signal;HPM_P1;HPM_P2
2022/08/19 00:00:18;;;;;;;3.13;2.92;;;;;;;19.02;79.55;101402.22;5010969;28;20080;-83
2022/08/19 00:02:45;;;;;;;3.15;2.95;;;;;;;19.02;79.47;101391.59;5008122;28;20319;-83
2022/08/19 00:05:13;;;;;;;3.33;3.03;;;;;;;18.99;79.31;101388.19;4990984;28;20038;-82
2022/08/19 00:07:39;;;;;;;2.93;2.73;;;;;;;18.99;79.72;101389.97;5007314;28;20040;-82
2022/08/19 00:10:06;;;;;;;3.05;2.85;;;;;;;18.98;79.35;101380.34;4989688;28;20136;-83
2022/08/19 00:12:32;;;;;;;4.50;3.00;;;;;;;18.95;79.63;101383.19;4985634;28;20064;-82
2022/08/19 00:14:58;;;;;;;3.50;3.20;;;;;;;18.93;79.63;101383.28;5012941;28;20032;-82
2022/08/19 00:17:23;;;;;;;2.78;2.58;;;;;;;18.92;79.49;101384.25;4991603;28;20037;-82
2022/08/19 00:19:49;;;;;;;3.58;2.92;;;;;;;18.92;79.63;101394.03;5012696;28;20270;-82
2022/08/19 00:22:15;;;;;;;4.57;3.50;;;;;;;18.90;79.63;101390.59;5009504;28;20038;-82
2022/08/19 00:24:43;;;;;;;2.80;2.60;;;;;;;18.89;79.55;101399.53;5008910;28;20033;-82
2022/08/19 00:27:08;;;;;;;4.03;3.13;;;;;;;18.88;79.59;101401.34;5009333;28;20401;-83
2022/08/19 00:29:34;;;;;;;3.35;2.92;;;;;;;18.86;79.64;101400.56;5010374;28;20351;-83
2022/08/19 00:31:59;;;;;;;3.85;2.90;;;;;;;18.85;79.64;101409.50;5011687;28;20045;-83
2022/08/19 00:34:27;;;;;;;3.47;2.80;;;;;;;18.83;79.81;101403.44;5008579;28;20062;-82
2022/08/19 00:36:54;;;;;;;2.87;2.70;;;;;;;18.82;79.76;101399.06;4989967;28;20190;-82
2022/08/19 00:39:19;;;;;;;2.90;2.70;;;;;;;18.82;79.86;101400.88;5009267;28;20190;-82
2022/08/19 00:41:48;;;;;;;3.47;2.97;;;;;;;18.80;79.86;101396.50;5005049;28;20333;-82
2022/08/19 00:44:21;;;;;;;2.90;2.70;;;;;;;18.79;79.78;101397.47;5006376;28;20034;-82
2022/08/19 00:46:49;;;;;;;3.80;2.60;;;;;;;18.79;79.82;101396.59;5021546;28;20041;-82
2022/08/19 00:49:37;;;;;;;3.25;3.00;;;;;;;18.78;80.04;101394.91;5011463;28;20043;-83
2022/08/19 00:52:11;;;;;;;4.03;3.30;;;;;;;18.76;80.06;101399.47;5008278;28;20252;-83
2022/08/19 00:54:38;;;;;;;5.35;3.55;;;;;;;18.74;79.86;101401.38;4992190;28;20025;-82
2022/08/19 00:57:08;;;;;;;3.85;3.50;;;;;;;18.73;80.01;101403.16;5015386;28;20065;-82
2022/08/19 00:59:40;;;;;;;3.45;3.20;;;;;;;18.72;79.96;101405.91;5006196;28;20119;-83
2022/08/19 01:02:05;;;;;;;3.17;2.88;;;;;;;18.70;80.03;101403.38;5015751;28;20029;-83
2022/08/19 01:04:31;;;;;;;3.72;3.40;;;;;;;18.70;79.97;101406.03;4997178;28;20396;-82
2022/08/19 01:06:57;;;;;;;3.55;3.05;;;;;;;18.69;79.92;101404.31;4998328;28;20037;-82
2022/08/19 01:09:24;;;;;;;3.10;2.90;;;;;;;18.68;80.14;101405.28;4997463;28;20061;-83
2022/08/19 01:11:50;;;;;;;3.70;3.40;;;;;;;18.67;80.08;101406.22;4994284;28;20030;-83
2022/08/19 01:14:16;;;;;;;6.25;3.60;;;;;;;18.65;80.04;101408.13;5004076;28;20413;-82
2022/08/19 01:16:43;;;;;;;3.65;3.35;;;;;;;18.65;80.04;101412.59;4994313;28;20029;-82
2022/08/19 01:19:28;;;;;;;3.78;3.42;;;;;;;18.64;80.12;101418.84;5005413;28;20272;-82
2022/08/19 01:22:41;;;;;;;3.72;3.42;;;;;;;18.62;80.15;101410.97;5014804;28;20539;-82
2022/08/19 01:25:07;;;;;;;4.15;3.75;;;;;;;18.61;80.15;101404.00;4959601;28;20031;-82
2022/08/19 01:27:58;;;;;;;3.70;3.40;;;;;;;18.60;80.25;101399.63;4951630;28;20089;-82
2022/08/19 01:30:28;;;;;;;4.03;3.72;;;;;;;18.58;80.24;101402.38;4987999;28;20146;-82
2022/08/19 01:32:56;;;;;;;4.10;3.80;;;;;;;18.57;80.40;101403.34;5014655;28;20514;-82
2022/08/19 01:35:25;;;;;;;5.93;3.70;;;;;;;18.57;80.19;101408.63;4996882;28;20033;-82
2022/08/19 01:37:57;;;;;;;4.22;3.70;;;;;;;18.56;80.27;101409.56;5004430;28;20091;-82
2022/08/19 01:40:27;;;;;;;3.72;3.42;;;;;;;18.55;80.32;101415.81;4998803;28;20045;-82
2022/08/19 01:42:53;;;;;;;3.50;3.20;;;;;;;18.53;80.19;101409.78;5006454;28;20077;-82
2022/08/19 01:45:20;;;;;;;3.85;3.40;;;;;;;18.53;80.26;101415.06;4997543;28;20042;-82
2022/08/19 01:47:46;;;;;;;3.80;3.53;;;;;;;18.53;80.40;101408.94;5014613;28;20038;-82
2022/08/19 01:50:12;;;;;;;4.18;3.63;;;;;;;18.52;80.30;101401.91;5014443;28;20080;-82
2022/08/19 01:52:40;;;;;;;5.32;3.58;;;;;;;18.50;80.46;101401.16;5012842;28;20080;-82
2022/08/19 01:55:10;;;;;;;4.40;3.92;;;;;;;18.49;80.45;101400.31;4996886;28;20053;-82
2022/08/19 01:57:35;;;;;;;3.67;3.38;;;;;;;18.49;80.16;101396.81;5013497;28;20037;-82
2022/08/19 02:00:07;;;;;;;4.95;3.33;;;;;;;18.48;80.45;101395.97;5014179;28;20052;-82
2022/08/19 02:02:33;;;;;;;4.03;3.65;;;;;;;18.48;80.16;101395.97;5010958;28;20030;-82
2022/08/19 02:04:59;;;;;;;4.25;3.90;;;;;;;18.47;80.04;101393.44;4995770;28;20085;-82
2022/08/19 02:07:24;;;;;;;4.13;3.78;;;;;;;18.46;79.71;101392.56;4994550;28;20045;-82
2022/08/19 02:09:50;;;;;;;4.65;4.25;;;;;;;18.46;79.76;101395.19;4993134;28;20336;-82
2022/08/19 02:12:16;;;;;;;5.07;4.68;;;;;;;18.44;79.58;101402.41;4977111;28;20034;-82
2022/08/19 02:14:42;;;;;;;5.50;5.10;;;;;;;18.45;80.10;101404.13;5017897;28;20057;-82
2022/08/19 02:17:07;;;;;;;6.65;6.10;;;;;;;18.45;80.11;101408.59;5018233;28;20041;-82
2022/08/19 02:19:32;;;;;;;6.90;6.30;;;;;;;18.44;80.24;101401.56;5017830;28;20325;-82
2022/08/19 02:21:59;;;;;;;7.60;6.82;;;;;;;18.44;80.35;101399.75;5018315;28;20057;-82
2022/08/19 02:24:26;;;;;;;8.10;7.50;;;;;;;18.43;80.42;101392.78;4984689;28;20105;-83
2022/08/19 02:26:51;;;;;;;8.30;7.55;;;;;;;18.42;80.67;101396.34;5017569;28;20188;-83
2022/08/19 02:29:17;;;;;;;8.20;7.22;;;;;;;18.41;80.67;101406.13;5019165;28;20087;-80
2022/08/19 02:31:42;;;;;;;7.88;7.00;;;;;;;18.41;80.62;101395.53;5000928;28;20481;-80
2022/08/19 02:34:08;;;;;;;7.93;7.13;;;;;;;18.40;80.62;101401.75;5014825;28;20040;-80
2022/08/19 02:36:33;;;;;;;8.05;7.25;;;;;;;18.38;80.57;101392.22;5013041;28;20045;-79
2022/08/19 02:38:59;;;;;;;9.18;7.55;;;;;;;18.38;80.66;101401.00;4992249;28;20061;-79
2022/08/19 02:41:28;;;;;;;9.57;8.50;;;;;;;18.38;80.58;101389.56;5010349;28;20065;-79
2022/08/19 02:43:56;;;;;;;9.80;8.50;;;;;;;18.37;80.51;101391.38;5018560;28;20348;-79
2022/08/19 02:46:28;;;;;;;11.73;9.88;;;;;;;18.37;80.57;101388.72;4999924;28;20280;-79
2022/08/19 02:48:57;;;;;;;11.98;10.20;;;;;;;18.36;80.88;101380.88;4999980;28;20030;-80
2022/08/19 02:51:27;;;;;;;;;;;;;;;18.35;80.77;101380.00;5007508;28;20347;-80
2022/08/19 02:53:52;;;;;;;10.65;9.68;;;;;;;18.34;80.76;101367.69;4998988;28;19960;-80
2022/08/19 02:56:18;;;;;;;12.13;10.32;;;;;;;18.33;80.67;101368.63;4997856;28;20033;-80
2022/08/19 02:58:44;;;;;;;10.43;9.30;;;;;;;18.32;80.64;101372.25;5000276;28;20033;-80
2022/08/19 03:01:11;;;;;;;11.40;9.27;;;;;;;18.31;80.75;101375.00;4999964;28;20060;-80
2022/08/19 03:03:37;;;;;;;11.02;9.90;;;;;;;18.31;80.73;101369.69;5000685;28;20090;-80
2022/08/19 03:06:13;;;;;;;11.43;9.90;;;;;;;18.30;80.66;101368.84;5018156;28;20044;-80
2022/08/19 03:08:41;;;;;;;15.38;10.75;;;;;;;18.30;80.95;101367.97;5016553;28;20041;-80
2022/08/19 03:11:13;;;;;;;12.73;11.10;;;;;;;18.29;80.90;101371.59;4997547;28;20304;-80
2022/08/19 03:13:39;;;;;;;13.32;11.02;;;;;;;18.28;80.99;101362.81;5016771;28;20033;-80
2022/08/19 03:16:05;;;;;;;14.43;11.95;;;;;;;18.29;80.98;101367.16;5000082;28;20326;-80
2022/08/19 03:18:31;;;;;;;14.18;12.27;;;;;;;18.27;80.87;101369.03;5016195;28;20109;-80
2022/08/19 03:20:56;;;;;;;21.65;12.93;;;;;;;18.28;80.95;101369.88;5017162;28;20041;-80
2022/08/19 03:23:22;;;;;;;15.80;12.20;;;;;;;18.27;81.01;101366.41;5011428;28;20052;-80
2022/08/19 03:25:51;;;;;;;14.30;12.30;;;;;;;18.26;81.16;101362.03;5005168;28;20053;-80
2022/08/19 03:28:17;;;;;;;16.38;13.10;;;;;;;18.26;80.94;101353.22;5005352;28;20221;-80
2022/08/19 03:30:56;;;;;;;16.20;12.80;;;;;;;18.26;81.11;101358.53;5012335;28;20038;-80
2022/08/19 03:33:22;;;;;;;15.60;11.68;;;;;;;18.23;81.21;101357.78;5005570;28;20045;-80
2022/08/19 03:35:59;;;;;;;13.75;11.82;;;;;;;18.24;81.14;101363.94;4992266;28;20037;-80
2022/08/19 03:38:25;;;;;;;14.95;12.10;;;;;;;18.24;80.92;101363.94;5002477;28;20031;-80
2022/08/19 03:40:50;;;;;;;13.27;11.13;;;;;;;18.22;80.47;101360.53;4994697;28;20042;-80
2022/08/19 03:43:17;;;;;;;12.98;11.13;;;;;;;18.21;79.81;101358.84;5016840;28;20229;-80
2022/08/19 03:45:42;;;;;;;11.10;9.95;;;;;;;18.21;79.41;101361.50;5004160;28;20424;-80
2022/08/19 03:48:08;;;;;;;13.02;10.48;;;;;;;18.21;79.48;101365.00;4980878;28;20029;-80
2022/08/19 03:50:38;;;;;;;12.63;10.55;;;;;;;18.19;79.32;101353.66;4982664;28;20113;-80
2022/08/19 03:53:04;;;;;;;11.65;9.82;;;;;;;18.20;78.75;101367.75;4999213;28;20022;-80
2022/08/19 03:55:29;;;;;;;14.70;10.70;;;;;;;18.19;78.42;101364.25;4998956;28;20038;-80
2022/08/19 03:57:54;;;;;;;11.27;9.80;;;;;;;18.20;78.36;101371.22;5012462;28;20089;-80
2022/08/19 04:00:20;;;;;;;12.55;10.60;;;;;;;18.19;77.94;101371.31;5002560;28;20057;-80
2022/08/19 04:02:45;;;;;;;16.65;12.27;;;;;;;18.19;77.58;101374.84;4980820;28;20042;-80
2022/08/19 04:05:10;;;;;;;16.80;12.50;;;;;;;18.19;77.43;101377.50;4979650;28;20233;-80
2022/08/19 04:07:36;;;;;;;19.98;13.70;;;;;;;18.19;77.24;101388.09;5010490;28;20271;-80
2022/08/19 04:10:03;;;;;;;18.98;12.82;;;;;;;18.20;77.59;101375.69;4971914;28;20018;-80
2022/08/19 04:12:28;;;;;;;19.52;13.32;;;;;;;18.19;77.93;101381.94;4987152;28;20365;-80
2022/08/19 04:14:54;;;;;;;19.48;14.05;;;;;;;18.20;78.22;101379.19;4996154;28;20033;-80
2022/08/19 04:17:19;;;;;;;18.52;13.23;;;;;;;18.19;78.26;101380.16;5003817;28;20045;-80
2022/08/19 04:19:44;;;;;;;22.10;14.25;;;;;;;18.20;78.24;101384.50;4998606;28;20049;-80
2022/08/19 04:22:11;;;;;;;18.13;13.18;;;;;;;18.19;78.14;101384.59;4996652;28;20029;-80
2022/08/19 04:24:36;;;;;;;20.38;13.30;;;;;;;18.19;77.94;101382.81;4977184;28;20029;-80
2022/08/19 04:27:02;;;;;;;19.95;14.82;;;;;;;18.20;77.18;101384.50;4998238;28;20061;-80
2022/08/19 04:29:29;;;;;;;20.45;14.50;;;;;;;18.19;77.14;101382.81;4990380;28;20018;-80
2022/08/19 04:31:56;;;;;;;23.25;15.13;;;;;;;18.19;76.97;101385.47;4994855;28;20052;-80
2022/08/19 04:34:23;;;;;;;26.55;18.08;;;;;;;18.20;76.53;101392.44;5005785;28;20033;-80
2022/08/19 04:36:50;;;;;;;23.27;16.08;;;;;;;18.19;76.66;101376.63;4997561;28;20031;-80
2022/08/19 04:39:19;;;;;;;23.48;16.17;;;;;;;18.20;76.45;101383.66;5015484;28;20038;-80
2022/08/19 04:44:31;;;;;;;26.88;16.58;;;;;;;18.20;76.26;101387.13;5013408;28;20132;-80
2022/08/19 04:46:56;;;;;;;25.08;16.30;;;;;;;18.20;76.27;101378.34;4998168;28;20032;-80
2022/08/19 04:49:23;;;;;;;25.88;16.08;;;;;;;18.20;75.83;101378.34;5015633;28;20093;-80
2022/08/19 04:51:52;;;;;;;27.42;16.88;;;;;;;18.20;75.99;101383.66;5007748;28;20033;-80
2022/08/19 04:54:22;;;;;;;22.50;15.15;;;;;;;18.21;76.07;101382.72;5015579;28;20401;-80
2022/08/19 04:56:49;;;;;;;24.23;15.77;;;;;;;18.22;76.61;101387.03;4996362;28;20040;-80
2022/08/19 04:59:16;;;;;;;24.95;15.93;;;;;;;18.23;76.86;101388.75;4980171;28;20117;-80
2022/08/19 05:01:42;;;;;;;39.42;19.77;;;;;;;18.26;78.71;101387.69;5013540;28;20044;-80
2022/08/19 05:04:08;;;;;;;28.17;16.73;;;;;;;18.27;77.80;101394.72;5015177;28;20037;-80
2022/08/19 05:06:35;;;;;;;25.70;15.48;;;;;;;18.27;77.19;101394.72;5014909;28;20037;-80
2022/08/19 05:09:03;;;;;;;55.25;17.70;;;;;;;18.28;76.94;101391.09;4979475;28;20065;-80
2022/08/19 05:11:33;;;;;;;34.15;16.60;;;;;;;18.29;76.94;101396.31;5000768;28;20237;-80
2022/08/19 05:13:59;;;;;;;27.40;15.90;;;;;;;18.30;77.20;101395.38;5012105;28;20053;-80
2022/08/19 05:16:26;;;;;;;27.55;15.60;;;;;;;18.32;77.02;101400.53;4997194;28;20096;-80
2022/08/19 05:24:22;;;;;;;22.95;15.35;;;;;;;18.35;77.28;101392.41;4989013;28;20311;-80
2022/08/19 05:26:50;;;;;;;25.35;15.13;;;;;;;18.37;77.43;101394.03;4984443;28;20038;-80
2022/08/19 05:29:19;;;;;;;21.60;15.30;;;;;;;18.38;77.52;101402.81;4989921;28;20131;-80
2022/08/19 05:31:46;;;;;;;21.65;14.70;;;;;;;18.38;77.38;101392.22;5004060;28;20325;-80
2022/08/19 05:34:12;;;;;;;20.10;15.23;;;;;;;18.40;77.12;101388.50;4998935;28;20033;-80
2022/08/19 05:36:43;;;;;;;25.77;16.25;;;;;;;18.40;77.40;101382.34;5009146;28;20033;-80
2022/08/19 05:39:13;;;;;;;24.27;15.98;;;;;;;18.42;77.89;101383.09;5015862;28;20277;-80
2022/08/19 05:41:43;;;;;;;24.23;15.48;;;;;;;18.44;77.76;101380.34;5009736;28;20049;-80
2022/08/19 05:44:09;;;;;;;21.40;14.70;;;;;;;18.44;77.71;101383.00;4992164;28;20039;-80
2022/08/19 05:46:37;;;;;;;20.65;13.05;;;;;;;18.46;77.66;101375.81;5008898;28;20041;-80
2022/08/19 05:49:06;;;;;;;21.65;15.25;;;;;;;18.46;77.88;101387.25;5005164;28;20038;-80
2022/08/19 05:51:33;;;;;;;22.13;15.52;;;;;;;18.49;78.08;101387.06;5009898;28;20258;-80
2022/08/19 05:53:59;;;;;;;25.83;13.93;;;;;;;18.50;78.16;101391.44;5011902;28;20048;-80
2022/08/19 05:56:25;;;;;;;17.88;13.50;;;;;;;18.52;78.29;101391.28;4980336;28;20341;-80
2022/08/19 05:58:50;;;;;;;24.17;14.88;;;;;;;18.53;78.33;101393.00;5010804;28;20069;-80
2022/08/19 06:01:18;;;;;;;23.05;15.25;;;;;;;18.55;78.66;101383.16;5010045;28;20100;-80
2022/08/19 06:03:44;;;;;;;17.13;14.25;;;;;;;18.56;78.84;101380.41;5006029;28;20217;-80
2022/08/19 06:06:12;;;;;;;18.92;13.88;;;;;;;18.56;78.58;101367.13;5001819;28;20042;-80
2022/08/19 06:08:38;;;;;;;22.00;14.25;;;;;;;18.57;78.23;101374.16;4991810;28;20053;-80
2022/08/19 06:11:16;;;;;;;22.38;15.55;;;;;;;18.58;78.71;101377.66;5007041;28;20045;-80
2022/08/19 06:13:43;;;;;;;20.00;14.25;;;;;;;18.59;78.82;101380.22;5008391;28;20336;-80
2022/08/19 06:16:08;;;;;;;19.50;14.85;;;;;;;18.61;78.54;101377.47;4986830;28;20038;-80
2022/08/19 06:18:34;;;;;;;22.30;15.57;;;;;;;18.63;79.03;101387.94;4994097;28;20037;-80
2022/08/19 06:21:03;;;;;;;19.67;13.48;;;;;;;18.63;79.18;101398.56;4988393;28;20058;-80
2022/08/19 06:23:29;;;;;;;20.00;13.52;;;;;;;18.65;79.39;101388.72;4995538;28;20116;-80
2022/08/19 06:25:54;;;;;;;19.45;13.98;;;;;;;18.65;79.54;101394.88;5011488;28;20046;-80
2022/08/19 06:28:20;;;;;;;24.60;18.15;;;;;;;18.67;79.77;101384.16;5011047;28;20029;-80
2022/08/19 06:30:46;;;;;;;18.50;14.27;;;;;;;18.68;79.41;101383.19;5012069;28;20041;-80
2022/08/19 06:33:11;;;;;;;21.08;15.63;;;;;;;18.69;79.10;101388.41;5008974;28;20165;-80
2022/08/19 06:35:41;;;;;;;23.73;15.77;;;;;;;18.70;79.29;101381.28;5000018;28;20116;-80
2022/08/19 06:38:06;;;;;;;23.60;16.45;;;;;;;18.72;79.19;101385.56;5004570;28;20092;-80
2022/08/19 06:40:31;;;;;;;20.42;14.98;;;;;;;18.74;79.99;101385.47;5005268;28;20730;-80
2022/08/19 06:42:59;;;;;;;25.75;17.55;;;;;;;18.75;79.72;101393.28;4986806;28;20048;-80
2022/08/19 06:45:24;;;;;;;23.92;16.33;;;;;;;18.75;79.40;101385.31;4990043;28;20096;-80
2022/08/19 06:47:55;;;;;;;21.48;14.63;;;;;;;18.76;79.08;101395.00;5006294;28;20053;-80
2022/08/19 06:50:21;;;;;;;28.90;18.90;;;;;;;18.78;79.08;101385.13;4991984;28;20423;-80
2022/08/19 06:52:47;;;;;;;21.77;14.80;;;;;;;18.81;79.90;101389.44;5002582;28;20038;-80
2022/08/19 06:55:13;;;;;;;25.27;15.95;;;;;;;18.82;79.47;101393.78;4986944;28;20360;-80
2022/08/19 06:57:38;;;;;;;22.20;16.63;;;;;;;18.84;79.69;101386.56;5003179;28;20274;-80
2022/08/19 07:00:06;;;;;;;27.08;16.65;;;;;;;18.85;79.93;101382.97;4996991;28;20133;-80
2022/08/19 07:02:31;;;;;;;21.42;15.18;;;;;;;18.87;79.86;101396.97;5004836;28;20037;-80
2022/08/19 07:04:57;;;;;;;27.15;16.92;;;;;;;18.88;80.20;101390.72;4995167;28;20104;-80
2022/08/19 07:07:23;;;;;;;25.23;16.60;;;;;;;18.91;80.90;101389.66;4994619;28;20109;-80
2022/08/19 07:09:50;;;;;;;30.40;19.10;;;;;;;18.91;80.93;101395.81;4991453;28;20327;-80
2022/08/19 07:12:16;;;;;;;27.35;17.15;;;;;;;18.92;81.19;101402.81;5005930;28;20062;-80
2022/08/19 07:14:42;;;;;;;22.38;16.83;;;;;;;18.96;81.86;101406.13;5014174;28;20155;-80
2022/08/19 07:17:10;;;;;;;24.13;18.20;;;;;;;18.98;81.62;101406.88;4987068;28;20065;-80
2022/08/19 07:19:38;;;;;;;25.95;17.92;;;;;;;19.00;81.88;101410.28;5000444;28;20039;-80
2022/08/19 07:22:06;;;;;;;20.37;15.87;;;;;;;19.03;82.09;101419.81;5003168;28;20042;-79
2022/08/19 07:24:32;;;;;;;33.20;19.57;;;;;;;19.05;81.66;101423.25;4994709;28;20045;-80
2022/08/19 07:27:02;;;;;;;19.55;15.60;;;;;;;19.09;82.01;101419.44;5013602;28;20492;-80
2022/08/19 07:29:30;;;;;;;26.92;18.40;;;;;;;19.11;82.26;101417.50;5008638;28;20046;-79
2022/08/19 07:31:58;;;;;;;19.75;16.25;;;;;;;19.13;82.74;101404.97;4993042;28;20022;-80
2022/08/19 07:34:25;;;;;;;16.88;13.93;;;;;;;19.15;83.15;101414.53;4994095;28;20052;-80
2022/08/19 07:36:51;;;;;;;20.65;15.48;;;;;;;19.18;83.12;101416.16;5013985;28;20053;-79
2022/08/19 07:39:21;;;;;;;23.45;15.05;;;;;;;19.20;82.82;101410.72;4981690;28;20037;-79
2022/08/19 07:41:47;;;;;;;16.13;12.32;;;;;;;19.20;82.17;101416.88;4989366;28;20029;-80
2022/08/19 07:44:15;;;;;;;15.85;12.65;;;;;;;19.23;82.41;101416.69;4991145;28;20125;-79
2022/08/19 07:46:46;;;;;;;26.75;16.48;;;;;;;19.24;82.49;101421.03;5009991;28;20056;-80
2022/08/19 07:49:17;;;;;;;21.52;15.00;;;;;;;19.26;82.90;101412.97;5004850;28;20306;-79
2022/08/19 07:51:43;;;;;;;21.50;12.85;;;;;;;19.27;83.10;101412.03;4990355;28;20034;-79
2022/08/19 07:54:09;;;;;;;14.77;12.38;;;;;;;19.28;82.38;101416.34;5001018;28;20083;-79
2022/08/19 07:56:35;;;;;;;18.65;13.45;;;;;;;19.30;82.22;101422.41;5009026;28;20370;-80
2022/08/19 07:59:00;;;;;;;15.73;11.85;;;;;;;19.32;82.31;101425.84;5012145;28;20046;-80
2022/08/19 08:01:27;;;;;;;17.27;13.57;;;;;;;19.33;82.46;101422.22;5007258;28;20527;-80
2022/08/19 08:09:33;;;;;;;20.63;13.82;;;;;;;19.42;82.79;101434.84;4999995;28;20340;-79
2022/08/19 08:12:14;;;;;;;22.33;14.93;;;;;;;19.45;83.62;101432.00;5002840;28;20038;-79
2022/08/19 08:14:47;;;;;;;19.92;13.23;;;;;;;19.49;83.76;101443.25;5005258;28;20698;-79
2022/08/19 08:17:15;;;;;;;18.70;12.75;;;;;;;19.51;83.69;101442.19;5003793;28;20336;-79
2022/08/19 08:19:41;;;;;;;14.65;10.98;;;;;;;19.53;83.38;101436.78;5002097;28;20046;-79
2022/08/19 08:23:21;;;;;;;18.42;12.30;;;;;;;19.56;83.12;101442.72;5005493;28;20049;-79
2022/08/19 08:24:54;;;;;;;17.90;12.63;;;;;;;19.60;83.22;101440.72;5005761;28;20046;-79
2022/08/19 08:27:19;;;;;;;16.33;11.50;;;;;;;19.64;83.70;101441.34;4994598;28;20467;-79
2022/08/19 08:29:45;;;;;;;14.98;10.88;;;;;;;19.65;83.35;101449.22;5006095;28;20040;-79
2022/08/19 08:32:11;;;;;;;12.57;11.10;;;;;;;19.68;83.04;101449.00;4977385;28;20042;-79
2022/08/19 08:34:36;;;;;;;25.25;11.73;;;;;;;19.72;82.88;101449.66;4991695;28;20062;-79
2022/08/19 08:37:03;;;;;;;15.68;11.02;;;;;;;19.74;83.15;101450.41;5005866;28;20036;-79
2022/08/19 08:39:28;;;;;;;12.60;10.52;;;;;;;19.78;83.19;101453.72;4992876;28;20057;-79
2022/08/19 08:42:27;;;;;;;17.40;10.88;;;;;;;19.81;83.89;101458.78;4990803;28;20026;-79
2022/08/19 08:44:52;;;;;;;;;;;;;;;19.83;83.73;101452.44;5004936;28;20068;-79
2022/08/19 08:47:21;;;;;;;8.68;7.88;;;;;;;19.86;83.91;101446.88;4992497;28;20439;-79
2022/08/19 08:49:59;;;;;;;13.70;9.68;;;;;;;19.88;84.46;101447.66;5006068;28;20065;-79
2022/08/19 08:52:37;;;;;;;15.07;9.95;;;;;;;19.92;85.01;101449.13;5004797;28;20034;-79
2022/08/19 08:55:13;;;;;;;11.18;7.68;;;;;;;19.96;84.65;101449.75;4994256;28;20275;-79
2022/08/19 08:57:54;;;;;;;12.43;8.02;;;;;;;19.98;84.44;101445.19;5004480;28;20025;-79
2022/08/19 09:00:30;;;;;;;15.60;8.30;;;;;;;20.02;84.48;101451.97;4982477;28;20042;-79
2022/08/19 09:02:57;;;;;;;12.23;7.85;;;;;;;20.05;84.26;101450.91;4984579;28;20071;-79
2022/08/19 09:05:25;;;;;;;12.07;7.57;;;;;;;20.10;84.69;101454.06;4985585;28;20038;-79
2022/08/19 09:08:05;;;;;;;10.50;8.20;;;;;;;20.13;84.41;101452.06;4985251;28;20136;-78
2022/08/19 09:10:53;;;;;;;11.57;7.57;;;;;;;20.15;84.45;101449.28;4985740;28;20275;-79
2022/08/19 09:13:41;;;;;;;7.93;7.10;;;;;;;20.18;83.96;101461.53;4989456;28;20054;-79
2022/08/19 09:16:27;;;;;;;11.30;7.32;;;;;;;20.19;84.06;101453.41;4983496;28;20042;-79
2022/08/19 09:18:58;;;;;;;13.77;8.13;;;;;;;20.22;84.51;101453.22;4988229;28;20238;-78
2022/08/19 09:21:25;;;;;;;11.40;7.30;;;;;;;20.24;84.44;101453.09;4986262;28;20337;-79
2022/08/19 09:23:51;;;;;;;11.15;7.03;;;;;;;20.25;84.21;101458.31;5004150;28;20289;-79
2022/08/19 09:26:20;;;;;;;10.90;6.95;;;;;;;20.26;83.50;101459.16;4987548;28;20080;-79
2022/08/19 09:28:47;;;;;;;11.10;6.25;;;;;;;20.27;83.05;101459.06;4988204;28;20063;-79
2022/08/19 09:31:16;;;;;;;8.00;5.78;;;;;;;20.28;83.19;101466.09;4968664;28;20229;-78
2022/08/19 09:33:43;;;;;;;10.20;6.10;;;;;;;20.29;83.11;101466.94;5002723;28;20034;-79
2022/08/19 09:36:11;;;;;;;5.38;4.72;;;;;;;20.29;82.33;101465.09;5003812;28;20129;-79
2022/08/19 09:38:39;;;;;;;5.37;4.87;;;;;;;20.28;82.00;101466.09;4985846;28;20124;-79
2022/08/19 09:41:07;;;;;;;6.82;4.57;;;;;;;20.30;82.19;101473.94;4988437;28;20081;-79
2022/08/19 09:43:36;;;;;;;6.22;4.72;;;;;;;20.30;81.36;101474.81;4986930;28;20333;-79
2022/08/19 09:46:02;;;;;;;7.22;5.00;;;;;;;20.30;81.26;101471.25;4990399;28;20125;-79
2022/08/19 09:48:28;;;;;;;8.05;5.05;;;;;;;20.30;81.11;101471.25;4991503;28;20045;-79
2022/08/19 09:50:53;;;;;;;5.45;4.75;;;;;;;20.31;81.25;101472.97;5006873;28;20156;-79
2022/08/19 09:53:22;;;;;;;8.93;5.28;;;;;;;20.31;81.45;101476.47;4985059;28;20376;-79
2022/08/19 09:55:47;;;;;;;6.10;4.22;;;;;;;20.32;81.52;101480.84;4979353;28;20360;-79
2022/08/19 09:58:13;;;;;;;6.78;4.35;;;;;;;20.33;81.06;101474.56;5007861;28;20465;-79
2022/08/19 10:00:38;;;;;;;5.68;4.10;;;;;;;20.36;81.21;101476.16;5007239;28;20126;-79
2022/08/19 10:03:03;;;;;;;5.60;4.85;;;;;;;20.39;81.22;101469.75;4994803;28;20034;-78
2022/08/19 10:05:47;;;;;;;6.18;4.10;;;;;;;20.40;81.24;101477.63;5002219;28;20061;-79
2022/08/19 10:08:13;;;;;;;4.57;3.25;;;;;;;20.44;80.98;101479.09;5010786;28;20455;-78
2022/08/19 10:10:38;;;;;;;6.57;4.10;;;;;;;20.47;81.11;101476.22;4978872;28;20033;-77
2022/08/19 10:13:04;;;;;;;7.32;4.53;;;;;;;20.50;81.18;101478.69;5001971;28;20088;-80
2022/08/19 10:15:29;;;;;;;7.43;4.70;;;;;;;20.53;80.96;101469.63;4991475;28;20144;-79
2022/08/19 10:17:55;;;;;;;5.07;4.20;;;;;;;20.57;80.49;101468.41;5010700;28;20083;-79
2022/08/19 10:20:22;;;;;;;5.00;4.18;;;;;;;20.60;80.70;101462.88;5004113;28;20042;-79
2022/08/19 10:22:47;;;;;;;4.75;4.38;;;;;;;20.66;81.71;101467.78;4991557;28;20033;-79
2022/08/19 10:25:16;;;;;;;3.92;3.63;;;;;;;20.70;82.05;101474.59;4994915;28;20095;-79
2022/08/19 10:27:41;;;;;;;7.82;3.28;;;;;;;20.73;81.29;101467.34;5008990;28;20044;-79
2022/08/19 10:30:08;;;;;;;4.60;4.07;;;;;;;20.75;81.65;101473.41;4976423;28;20064;-79
2022/08/19 10:32:34;;;;;;;7.22;3.38;;;;;;;20.74;81.07;101464.56;5003130;28;20026;-79
2022/08/19 10:35:00;;;;;;;3.03;2.80;;;;;;;20.77;81.07;101466.16;5014910;28;20036;-79
2022/08/19 10:37:25;;;;;;;3.45;2.40;;;;;;;20.77;80.70;101474.13;4995399;28;20303;-79
2022/08/19 10:39:51;;;;;;;4.78;2.50;;;;;;;20.77;80.48;101469.66;5010522;28;20251;-79
2022/08/19 10:42:18;;;;;;;3.10;2.35;;;;;;;20.79;80.38;101469.53;4993341;28;20044;-79
2022/08/19 10:44:43;;;;;;;3.58;2.70;;;;;;;20.80;80.45;101468.59;5006038;28;20058;-79
2022/08/19 10:47:09;;;;;;;3.63;2.30;;;;;;;20.81;80.33;101471.16;4988728;28;20465;-79
2022/08/19 10:52:32;;;;;;;2.45;2.22;;;;;;;20.80;80.32;101465.94;5009138;28;20037;-79
2022/08/19 10:52:36;;;;;;;2.88;2.10;;;;;;;20.80;80.52;101461.44;4998643;28;20112;-79
2022/08/19 10:57:52;;;;;;;2.10;1.70;;;;;;;20.81;80.47;101471.16;5008600;28;20076;-80
2022/08/19 11:00:18;;;;;;;1.95;1.60;;;;;;;20.82;80.54;101475.50;5010979;28;20092;-79
2022/08/19 11:02:43;;;;;;;2.38;1.63;;;;;;;20.84;80.55;101465.56;4979652;28;20341;-79
2022/08/19 11:05:11;;;;;;;2.88;1.60;;;;;;;20.84;80.29;101467.38;4959963;28;20049;-79
2022/08/19 11:07:41;;;;;;;4.03;1.60;;;;;;;20.85;80.05;101469.94;4991745;28;20072;-79
2022/08/19 11:10:09;;;;;;;2.92;1.77;;;;;;;20.85;79.96;101467.28;5009160;28;20383;-79
2022/08/19 11:12:39;;;;;;;2.42;1.67;;;;;;;20.86;80.39;101466.31;4992786;28;20041;-79
2022/08/19 11:15:07;;;;;;;3.03;2.20;;;;;;;20.88;80.42;101464.41;4995973;28;20141;-79
2022/08/19 11:17:32;;;;;;;1.48;1.38;;;;;;;20.88;80.60;101468.84;4995054;28;20057;-79
2022/08/19 11:19:58;;;;;;;2.30;2.03;;;;;;;20.89;80.95;101474.06;5006436;28;20042;-79
2022/08/19 11:22:23;;;;;;;1.92;1.60;;;;;;;20.90;80.42;101478.44;5004058;28;20352;-79
2022/08/19 11:24:49;;;;;;;3.28;1.88;;;;;;;20.91;80.50;101479.28;5007412;28;20025;-80
2022/08/19 11:27:14;;;;;;;2.00;1.80;;;;;;;20.92;80.55;101469.47;5011894;28;20088;-80
2022/08/19 11:29:40;;;;;;;3.00;1.77;;;;;;;20.93;80.70;101468.53;4975542;28;20029;-80
2022/08/19 11:32:12;;;;;;;1.77;1.63;;;;;;;20.94;81.08;101467.53;5012962;28;20037;-79
2022/08/19 11:34:39;;;;;;;2.97;1.70;;;;;;;20.96;81.10;101465.66;4997598;28;20022;-80
2022/08/19 11:37:05;;;;;;;3.00;1.73;;;;;;;20.97;81.35;101470.00;4996667;28;20053;-80